Booth, West Virginia
Current Conditions -  °F | °C
As of 6:53 AM on Saturday 25 Oct 2014 (Local Time) from KMGW Reporting Station
Broken Clouds Broken Clouds  
Wind Chill: 47°   Ceiling: 4900
Heat Index: 49°   Visibility: 10mi
Dew Point: 39°   Wind: 6mph
Humidity: 69%   Direction: 210°SSW
Pressure: 30.01"   Gusts: NA
Location:  39.6°N, 80.02°W
Report Text: KMGW 251053Z 21005KT 10SM BKN049 09/04 A3001 RMK AO2 SLP161 T00940039
Loading
Personal Weather Stations






























Interactive Weather Map
Tropical Storm Tracking
New forecast layout! Learn more

10-Day Weather Forecast

Advertisements
Track Severe Weather on mobile